sensor_id;sensor_type;location;lat;lon;timestamp;P1;durP1;ratioP1;P2;durP2;ratioP2
21432;SDS011;18592;49.708;10.900;2022-08-20T00:01:15;5.93;;;5.32;;
21432;SDS011;18592;49.708;10.900;2022-08-20T00:03:41;5.55;;;4.97;;
21432;SDS011;18592;49.708;10.900;2022-08-20T00:05:41;6.25;;;4.68;;
21432;SDS011;18592;49.708;10.900;2022-08-20T00:07:46;6.00;;;5.50;;
21432;SDS011;18592;49.708;10.900;2022-08-20T00:09:47;5.03;;;4.60;;
21432;SDS011;18592;49.708;10.900;2022-08-20T00:11:50;6.07;;;5.57;;
21432;SDS011;18592;49.708;10.900;2022-08-20T00:13:53;6.90;;;4.80;;
21432;SDS011;18592;49.708;10.900;2022-08-20T00:15:57;5.38;;;4.88;;
21432;SDS011;18592;49.708;10.900;2022-08-20T00:17:59;5.70;;;5.10;;
21432;SDS011;18592;49.708;10.900;2022-08-20T00:20:08;6.07;;;5.35;;
21432;SDS011;18592;49.708;10.900;2022-08-20T00:22:12;5.30;;;4.80;;
21432;SDS011;18592;49.708;10.900;2022-08-20T00:24:14;5.40;;;4.82;;
21432;SDS011;18592;49.708;10.900;2022-08-20T00:26:16;5.45;;;4.93;;
21432;SDS011;18592;49.708;10.900;2022-08-20T00:28:19;5.05;;;4.65;;
21432;SDS011;18592;49.708;10.900;2022-08-20T00:30:22;4.88;;;4.32;;
21432;SDS011;18592;49.708;10.900;2022-08-20T00:32:26;5.28;;;4.88;;
21432;SDS011;18592;49.708;10.900;2022-08-20T00:34:28;5.07;;;4.53;;
21432;SDS011;18592;49.708;10.900;2022-08-20T00:36:30;5.47;;;4.97;;
21432;SDS011;18592;49.708;10.900;2022-08-20T00:38:33;5.38;;;4.88;;
21432;SDS011;18592;49.708;10.900;2022-08-20T00:40:42;5.10;;;4.60;;
21432;SDS011;18592;49.708;10.900;2022-08-20T00:42:51;4.65;;;4.25;;
21432;SDS011;18592;49.708;10.900;2022-08-20T00:44:57;5.85;;;4.45;;
21432;SDS011;18592;49.708;10.900;2022-08-20T00:46:59;5.82;;;5.25;;
21432;SDS011;18592;49.708;10.900;2022-08-20T00:49:00;5.63;;;5.13;;
21432;SDS011;18592;49.708;10.900;2022-08-20T00:51:10;5.63;;;5.13;;
21432;SDS011;18592;49.708;10.900;2022-08-20T00:53:30;4.95;;;4.50;;
21432;SDS011;18592;49.708;10.900;2022-08-20T00:55:33;7.43;;;5.47;;
21432;SDS011;18592;49.708;10.900;2022-08-20T00:57:37;5.88;;;5.38;;
21432;SDS011;18592;49.708;10.900;2022-08-20T01:00:03;4.82;;;4.43;;
21432;SDS011;18592;49.708;10.900;2022-08-20T01:02:11;4.97;;;4.47;;
21432;SDS011;18592;49.708;10.900;2022-08-20T01:04:16;5.38;;;4.93;;
21432;SDS011;18592;49.708;10.900;2022-08-20T01:06:18;6.18;;;5.57;;
21432;SDS011;18592;49.708;10.900;2022-08-20T01:08:20;5.72;;;4.72;;
21432;SDS011;18592;49.708;10.900;2022-08-20T01:10:30;5.80;;;5.28;;
21432;SDS011;18592;49.708;10.900;2022-08-20T01:12:37;4.97;;;4.47;;
21432;SDS011;18592;49.708;10.900;2022-08-20T01:14:41;5.47;;;4.97;;
21432;SDS011;18592;49.708;10.900;2022-08-20T01:16:45;5.75;;;5.25;;
21432;SDS011;18592;49.708;10.900;2022-08-20T01:18:50;5.63;;;4.90;;
21432;SDS011;18592;49.708;10.900;2022-08-20T01:20:59;5.82;;;5.30;;
21432;SDS011;18592;49.708;10.900;2022-08-20T01:25:51;5.75;;;5.05;;
21432;SDS011;18592;49.708;10.900;2022-08-20T01:27:55;5.15;;;4.65;;
21432;SDS011;18592;49.708;10.900;2022-08-20T01:29:58;5.85;;;5.22;;
21432;SDS011;18592;49.708;10.900;2022-08-20T01:32:06;5.72;;;4.70;;
21432;SDS011;18592;49.708;10.900;2022-08-20T01:34:09;5.60;;;4.45;;
21432;SDS011;18592;49.708;10.900;2022-08-20T01:36:15;5.32;;;4.82;;
21432;SDS011;18592;49.708;10.900;2022-08-20T01:38:18;5.50;;;4.93;;
21432;SDS011;18592;49.708;10.900;2022-08-20T01:40:24;5.40;;;4.90;;
21432;SDS011;18592;49.708;10.900;2022-08-20T01:42:40;4.72;;;4.32;;
21432;SDS011;18592;49.708;10.900;2022-08-20T01:44:59;5.18;;;4.68;;
21432;SDS011;18592;49.708;10.900;2022-08-20T01:47:17;5.72;;;5.22;;
21432;SDS011;18592;49.708;10.900;2022-08-20T01:49:27;5.10;;;4.60;;
21432;SDS011;18592;49.708;10.900;2022-08-20T01:51:31;5.07;;;4.65;;
21432;SDS011;18592;49.708;10.900;2022-08-20T01:53:34;5.70;;;4.97;;
21432;SDS011;18592;49.708;10.900;2022-08-20T01:55:40;5.25;;;4.75;;
21432;SDS011;18592;49.708;10.900;2022-08-20T01:57:43;5.68;;;5.10;;
21432;SDS011;18592;49.708;10.900;2022-08-20T01:59:46;5.03;;;4.57;;
21432;SDS011;18592;49.708;10.900;2022-08-20T02:01:50;5.22;;;4.70;;
21432;SDS011;18592;49.708;10.900;2022-08-20T02:03:53;5.03;;;4.55;;
21432;SDS011;18592;49.708;10.900;2022-08-20T02:05:58;5.90;;;5.30;;
21432;SDS011;18592;49.708;10.900;2022-08-20T02:08:00;5.22;;;4.72;;
21432;SDS011;18592;49.708;10.900;2022-08-20T02:10:04;5.30;;;4.38;;
21432;SDS011;18592;49.708;10.900;2022-08-20T02:12:07;5.65;;;5.15;;
21432;SDS011;18592;49.708;10.900;2022-08-20T02:14:10;6.05;;;4.75;;
21432;SDS011;18592;49.708;10.900;2022-08-20T02:16:13;5.40;;;4.90;;
21432;SDS011;18592;49.708;10.900;2022-08-20T02:18:14;7.32;;;5.38;;
21432;SDS011;18592;49.708;10.900;2022-08-20T02:20:18;6.32;;;5.72;;
21432;SDS011;18592;49.708;10.900;2022-08-20T02:22:26;6.15;;;5.32;;
21432;SDS011;18592;49.708;10.900;2022-08-20T02:24:50;7.10;;;6.18;;
21432;SDS011;18592;49.708;10.900;2022-08-20T02:26:52;8.23;;;6.80;;
21432;SDS011;18592;49.708;10.900;2022-08-20T02:28:55;7.72;;;7.03;;
21432;SDS011;18592;49.708;10.900;2022-08-20T02:31:01;7.47;;;5.93;;
21432;SDS011;18592;49.708;10.900;2022-08-20T02:33:09;6.10;;;5.60;;
21432;SDS011;18592;49.708;10.900;2022-08-20T02:35:12;6.57;;;5.97;;
21432;SDS011;18592;49.708;10.900;2022-08-20T02:37:16;7.05;;;5.80;;
21432;SDS011;18592;49.708;10.900;2022-08-20T02:39:19;6.15;;;5.65;;
21432;SDS011;18592;49.708;10.900;2022-08-20T02:41:20;5.78;;;5.28;;
21432;SDS011;18592;49.708;10.900;2022-08-20T02:43:22;6.70;;;5.65;;
21432;SDS011;18592;49.708;10.900;2022-08-20T02:45:24;6.30;;;5.70;;
21432;SDS011;18592;49.708;10.900;2022-08-20T02:47:26;7.25;;;5.90;;
21432;SDS011;18592;49.708;10.900;2022-08-20T02:49:28;6.40;;;5.80;;
21432;SDS011;18592;49.708;10.900;2022-08-20T02:51:29;6.88;;;6.18;;
21432;SDS011;18592;49.708;10.900;2022-08-20T02:53:32;6.50;;;5.90;;
21432;SDS011;18592;49.708;10.900;2022-08-20T02:55:36;6.20;;;5.63;;
21432;SDS011;18592;49.708;10.900;2022-08-20T02:57:38;6.90;;;6.30;;
21432;SDS011;18592;49.708;10.900;2022-08-20T02:59:40;6.65;;;5.95;;
21432;SDS011;18592;49.708;10.900;2022-08-20T03:01:41;6.50;;;5.80;;
21432;SDS011;18592;49.708;10.900;2022-08-20T03:03:43;7.32;;;6.63;;
21432;SDS011;18592;49.708;10.900;2022-08-20T03:05:45;7.00;;;6.30;;
21432;SDS011;18592;49.708;10.900;2022-08-20T03:07:49;6.72;;;6.13;;
21432;SDS011;18592;49.708;10.900;2022-08-20T03:09:57;7.40;;;6.70;;
21432;SDS011;18592;49.708;10.900;2022-08-20T03:11:59;7.65;;;6.95;;
21432;SDS011;18592;49.708;10.900;2022-08-20T03:14:01;7.45;;;6.75;;
21432;SDS011;18592;49.708;10.900;2022-08-20T03:16:03;7.50;;;6.75;;
21432;SDS011;18592;49.708;10.900;2022-08-20T03:18:05;7.05;;;6.43;;
21432;SDS011;18592;49.708;10.900;2022-08-20T03:20:07;7.60;;;6.78;;
21432;SDS011;18592;49.708;10.900;2022-08-20T03:22:10;7.60;;;6.90;;
21432;SDS011;18592;49.708;10.900;2022-08-20T03:24:12;8.05;;;7.25;;
21432;SDS011;18592;49.708;10.900;2022-08-20T03:26:13;8.55;;;7.63;;
21432;SDS011;18592;49.708;10.900;2022-08-20T03:28:17;7.65;;;6.95;;
21432;SDS011;18592;49.708;10.900;2022-08-20T03:30:19;8.43;;;6.28;;
21432;SDS011;18592;49.708;10.900;2022-08-20T03:32:22;6.80;;;6.20;;
21432;SDS011;18592;49.708;10.900;2022-08-20T03:34:26;7.43;;;6.63;;
21432;SDS011;18592;49.708;10.900;2022-08-20T03:36:28;8.18;;;7.38;;
21432;SDS011;18592;49.708;10.900;2022-08-20T03:38:30;9.55;;;7.82;;
21432;SDS011;18592;49.708;10.900;2022-08-20T03:40:33;7.50;;;6.80;;
21432;SDS011;18592;49.708;10.900;2022-08-20T03:42:38;7.10;;;6.40;;
21432;SDS011;18592;49.708;10.900;2022-08-20T03:44:40;7.25;;;6.30;;
21432;SDS011;18592;49.708;10.900;2022-08-20T03:46:41;7.05;;;6.35;;
21432;SDS011;18592;49.708;10.900;2022-08-20T03:48:43;8.77;;;6.43;;
21432;SDS011;18592;49.708;10.900;2022-08-20T03:50:45;7.18;;;6.45;;
21432;SDS011;18592;49.708;10.900;2022-08-20T03:52:48;7.13;;;6.43;;
21432;SDS011;18592;49.708;10.900;2022-08-20T03:54:51;7.63;;;6.57;;
21432;SDS011;18592;49.708;10.900;2022-08-20T03:56:53;6.70;;;6.10;;
21432;SDS011;18592;49.708;10.900;2022-08-20T03:58:54;7.60;;;6.43;;
21432;SDS011;18592;49.708;10.900;2022-08-20T04:00:56;8.55;;;6.45;;
21432;SDS011;18592;49.708;10.900;2022-08-20T04:02:58;7.80;;;6.65;;
21432;SDS011;18592;49.708;10.900;2022-08-20T04:05:01;8.07;;;7.28;;
21432;SDS011;18592;49.708;10.900;2022-08-20T04:07:09;7.57;;;6.88;;
21432;SDS011;18592;49.708;10.900;2022-08-20T04:09:13;7.32;;;6.63;;
21432;SDS011;18592;49.708;10.900;2022-08-20T04:11:15;7.97;;;7.22;;
21432;SDS011;18592;49.708;10.900;2022-08-20T04:13:17;8.30;;;7.35;;
21432;SDS011;18592;49.708;10.900;2022-08-20T04:15:23;7.45;;;6.75;;
21432;SDS011;18592;49.708;10.900;2022-08-20T04:17:25;8.20;;;7.32;;
21432;SDS011;18592;49.708;10.900;2022-08-20T04:19:27;9.32;;;8.15;;
21432;SDS011;18592;49.708;10.900;2022-08-20T04:21:34;9.25;;;8.05;;
21432;SDS011;18592;49.708;10.900;2022-08-20T04:23:37;8.52;;;7.72;;
21432;SDS011;18592;49.708;10.900;2022-08-20T04:25:40;9.05;;;8.15;;
21432;SDS011;18592;49.708;10.900;2022-08-20T04:27:43;9.88;;;8.00;;
21432;SDS011;18592;49.708;10.900;2022-08-20T04:29:48;8.77;;;7.90;;
21432;SDS011;18592;49.708;10.900;2022-08-20T04:31:49;8.48;;;7.68;;
21432;SDS011;18592;49.708;10.900;2022-08-20T04:33:52;9.60;;;8.40;;
21432;SDS011;18592;49.708;10.900;2022-08-20T04:35:53;9.55;;;8.55;;
21432;SDS011;18592;49.708;10.900;2022-08-20T04:38:07;9.88;;;8.88;;
21432;SDS011;18592;49.708;10.900;2022-08-20T04:40:11;9.50;;;8.50;;
21432;SDS011;18592;49.708;10.900;2022-08-20T04:42:35;9.68;;;8.68;;
21432;SDS011;18592;49.708;10.900;2022-08-20T04:44:39;9.48;;;8.52;;
21432;SDS011;18592;49.708;10.900;2022-08-20T04:46:41;9.98;;;8.98;;
21432;SDS011;18592;49.708;10.900;2022-08-20T04:48:43;9.00;;;8.10;;
21432;SDS011;18592;49.708;10.900;2022-08-20T04:50:50;9.60;;;8.60;;
21432;SDS011;18592;49.708;10.900;2022-08-20T04:52:54;8.82;;;7.93;;
21432;SDS011;18592;49.708;10.900;2022-08-20T04:55:00;11.00;;;9.90;;
21432;SDS011;18592;49.708;10.900;2022-08-20T04:57:02;11.15;;;9.75;;
21432;SDS011;18592;49.708;10.900;2022-08-20T04:59:05;10.57;;;9.48;;
21432;SDS011;18592;49.708;10.900;2022-08-20T05:01:08;14.68;;;11.43;;
21432;SDS011;18592;49.708;10.900;2022-08-20T05:03:11;11.55;;;10.35;;
21432;SDS011;18592;49.708;10.900;2022-08-20T05:05:13;10.38;;;9.27;;
21432;SDS011;18592;49.708;10.900;2022-08-20T05:07:15;12.52;;;11.23;;
21432;SDS011;18592;49.708;10.900;2022-08-20T05:09:19;10.20;;;9.15;;
21432;SDS011;18592;49.708;10.900;2022-08-20T05:11:21;11.05;;;9.93;;
21432;SDS011;18592;49.708;10.900;2022-08-20T05:13:36;13.20;;;11.80;;
21432;SDS011;18592;49.708;10.900;2022-08-20T05:15:38;13.68;;;12.07;;
21432;SDS011;18592;49.708;10.900;2022-08-20T05:17:40;11.02;;;9.70;;
21432;SDS011;18592;49.708;10.900;2022-08-20T05:19:44;11.55;;;10.05;;
21432;SDS011;18592;49.708;10.900;2022-08-20T05:21:46;12.43;;;11.18;;
21432;SDS011;18592;49.708;10.900;2022-08-20T05:23:48;12.93;;;11.50;;
21432;SDS011;18592;49.708;10.900;2022-08-20T05:25:50;12.38;;;10.95;;
21432;SDS011;18592;49.708;10.900;2022-08-20T05:27:54;14.55;;;13.05;;
21432;SDS011;18592;49.708;10.900;2022-08-20T05:30:02;13.18;;;11.82;;
21432;SDS011;18592;49.708;10.900;2022-08-20T05:32:12;16.10;;;14.15;;
21432;SDS011;18592;49.708;10.900;2022-08-20T05:34:14;14.90;;;13.20;;
21432;SDS011;18592;49.708;10.900;2022-08-20T05:36:16;14.55;;;13.00;;
21432;SDS011;18592;49.708;10.900;2022-08-20T05:38:18;14.40;;;12.65;;
21432;SDS011;18592;49.708;10.900;2022-08-20T05:40:22;12.43;;;10.70;;
21432;SDS011;18592;49.708;10.900;2022-08-20T05:42:25;14.52;;;12.77;;
21432;SDS011;18592;49.708;10.900;2022-08-20T05:44:29;14.43;;;12.75;;
21432;SDS011;18592;49.708;10.900;2022-08-20T05:46:31;13.55;;;12.15;;
21432;SDS011;18592;49.708;10.900;2022-08-20T05:48:33;13.82;;;12.40;;
21432;SDS011;18592;49.708;10.900;2022-08-20T05:50:37;14.55;;;11.90;;
21432;SDS011;18592;49.708;10.900;2022-08-20T05:52:40;14.13;;;11.68;;
21432;SDS011;18592;49.708;10.900;2022-08-20T05:54:45;14.65;;;13.15;;
21432;SDS011;18592;49.708;10.900;2022-08-20T05:56:47;14.50;;;12.63;;
21432;SDS011;18592;49.708;10.900;2022-08-20T05:58:48;16.20;;;12.35;;
21432;SDS011;18592;49.708;10.900;2022-08-20T06:00:52;13.77;;;12.38;;
21432;SDS011;18592;49.708;10.900;2022-08-20T06:02:54;13.77;;;12.38;;
21432;SDS011;18592;49.708;10.900;2022-08-20T06:05:15;13.82;;;12.43;;
21432;SDS011;18592;49.708;10.900;2022-08-20T06:07:17;14.45;;;11.73;;
21432;SDS011;18592;49.708;10.900;2022-08-20T06:09:19;12.65;;;11.43;;
21432;SDS011;18592;49.708;10.900;2022-08-20T06:11:32;12.55;;;11.27;;
21432;SDS011;18592;49.708;10.900;2022-08-20T06:13:37;11.23;;;10.10;;
21432;SDS011;18592;49.708;10.900;2022-08-20T06:15:39;10.15;;;9.15;;
21432;SDS011;18592;49.708;10.900;2022-08-20T06:17:41;13.90;;;12.50;;
21432;SDS011;18592;49.708;10.900;2022-08-20T06:19:43;13.50;;;12.13;;
21432;SDS011;18592;49.708;10.900;2022-08-20T06:21:47;12.73;;;11.43;;
21432;SDS011;18592;49.708;10.900;2022-08-20T06:23:49;14.52;;;12.38;;
21432;SDS011;18592;49.708;10.900;2022-08-20T06:25:59;13.05;;;11.63;;
21432;SDS011;18592;49.708;10.900;2022-08-20T06:28:02;13.10;;;11.80;;
21432;SDS011;18592;49.708;10.900;2022-08-20T06:30:05;13.48;;;12.18;;
21432;SDS011;18592;49.708;10.900;2022-08-20T06:32:08;12.80;;;11.50;;
21432;SDS011;18592;49.708;10.900;2022-08-20T06:34:10;14.10;;;12.60;;
21432;SDS011;18592;49.708;10.900;2022-08-20T06:36:12;13.40;;;11.90;;
21432;SDS011;18592;49.708;10.900;2022-08-20T06:38:19;12.75;;;11.43;;
21432;SDS011;18592;49.708;10.900;2022-08-20T06:40:21;14.55;;;13.05;;
21432;SDS011;18592;49.708;10.900;2022-08-20T06:42:25;12.68;;;10.98;;
21432;SDS011;18592;49.708;10.900;2022-08-20T06:44:28;11.98;;;10.80;;
21432;SDS011;18592;49.708;10.900;2022-08-20T06:46:30;13.48;;;11.88;;
21432;SDS011;18592;49.708;10.900;2022-08-20T06:48:32;13.45;;;12.15;;
21432;SDS011;18592;49.708;10.900;2022-08-20T06:50:35;14.65;;;13.15;;
21432;SDS011;18592;49.708;10.900;2022-08-20T06:52:48;10.82;;;9.70;;
21432;SDS011;18592;49.708;10.900;2022-08-20T06:54:53;12.95;;;11.65;;
21432;SDS011;18592;49.708;10.900;2022-08-20T06:56:55;13.43;;;11.93;;
21432;SDS011;18592;49.708;10.900;2022-08-20T06:58:56;13.20;;;11.52;;
21432;SDS011;18592;49.708;10.900;2022-08-20T07:00:58;12.23;;;11.02;;
21432;SDS011;18592;49.708;10.900;2022-08-20T07:03:10;12.30;;;11.00;;
21432;SDS011;18592;49.708;10.900;2022-08-20T07:05:14;12.30;;;11.10;;
21432;SDS011;18592;49.708;10.900;2022-08-20T07:07:17;12.43;;;11.23;;
21432;SDS011;18592;49.708;10.900;2022-08-20T07:09:20;11.82;;;10.73;;
21432;SDS011;18592;49.708;10.900;2022-08-20T07:11:22;11.63;;;10.52;;
21432;SDS011;18592;49.708;10.900;2022-08-20T07:13:30;12.63;;;11.35;;
21432;SDS011;18592;49.708;10.900;2022-08-20T07:15:32;11.52;;;10.43;;
21432;SDS011;18592;49.708;10.900;2022-08-20T07:17:35;11.68;;;10.50;;
21432;SDS011;18592;49.708;10.900;2022-08-20T07:19:37;10.60;;;9.60;;
21432;SDS011;18592;49.708;10.900;2022-08-20T07:21:40;10.52;;;9.52;;
21432;SDS011;18592;49.708;10.900;2022-08-20T07:23:42;11.30;;;9.75;;
21432;SDS011;18592;49.708;10.900;2022-08-20T07:25:43;10.60;;;9.60;;
21432;SDS011;18592;49.708;10.900;2022-08-20T07:27:46;9.55;;;8.57;;
21432;SDS011;18592;49.708;10.900;2022-08-20T07:29:50;9.98;;;9.02;;
21432;SDS011;18592;49.708;10.900;2022-08-20T07:32:15;9.25;;;8.32;;
21432;SDS011;18592;49.708;10.900;2022-08-20T07:34:39;9.30;;;8.40;;
21432;SDS011;18592;49.708;10.900;2022-08-20T07:36:45;9.45;;;8.55;;
21432;SDS011;18592;49.708;10.900;2022-08-20T07:38:48;8.80;;;8.00;;
21432;SDS011;18592;49.708;10.900;2022-08-20T07:40:51;9.50;;;8.60;;
21432;SDS011;18592;49.708;10.900;2022-08-20T07:42:55;8.30;;;7.40;;
21432;SDS011;18592;49.708;10.900;2022-08-20T07:44:58;8.63;;;7.82;;
21432;SDS011;18592;49.708;10.900;2022-08-20T07:47:00;8.15;;;7.45;;
21432;SDS011;18592;49.708;10.900;2022-08-20T07:49:05;8.55;;;7.65;;
21432;SDS011;18592;49.708;10.900;2022-08-20T07:51:09;8.00;;;7.25;;
21432;SDS011;18592;49.708;10.900;2022-08-20T07:53:11;8.00;;;7.30;;
21432;SDS011;18592;49.708;10.900;2022-08-20T07:55:13;7.40;;;6.80;;
21432;SDS011;18592;49.708;10.900;2022-08-20T07:57:16;8.00;;;7.25;;
21432;SDS011;18592;49.708;10.900;2022-08-20T07:59:18;7.75;;;7.05;;
21432;SDS011;18592;49.708;10.900;2022-08-20T08:01:22;7.47;;;6.88;;
21432;SDS011;18592;49.708;10.900;2022-08-20T08:03:29;7.72;;;7.03;;
21432;SDS011;18592;49.708;10.900;2022-08-20T08:05:50;7.72;;;7.03;;
21432;SDS011;18592;49.708;10.900;2022-08-20T08:07:52;7.90;;;7.20;;
21432;SDS011;18592;49.708;10.900;2022-08-20T08:09:54;8.27;;;7.53;;
21432;SDS011;18592;49.708;10.900;2022-08-20T08:11:56;8.32;;;7.63;;
21432;SDS011;18592;49.708;10.900;2022-08-20T08:13:59;7.95;;;7.25;;
21432;SDS011;18592;49.708;10.900;2022-08-20T08:16:03;8.05;;;7.32;;
21432;SDS011;18592;49.708;10.900;2022-08-20T08:18:08;7.40;;;6.80;;
21432;SDS011;18592;49.708;10.900;2022-08-20T08:20:15;8.27;;;7.47;;
21432;SDS011;18592;49.708;10.900;2022-08-20T08:22:19;8.20;;;7.40;;
21432;SDS011;18592;49.708;10.900;2022-08-20T08:24:21;8.50;;;7.70;;
21432;SDS011;18592;49.708;10.900;2022-08-20T08:26:28;8.15;;;7.43;;
21432;SDS011;18592;49.708;10.900;2022-08-20T08:28:30;7.63;;;7.00;;
21432;SDS011;18592;49.708;10.900;2022-08-20T08:30:32;7.20;;;6.60;;
21432;SDS011;18592;49.708;10.900;2022-08-20T08:32:34;7.88;;;7.18;;
21432;SDS011;18592;49.708;10.900;2022-08-20T08:34:38;7.47;;;6.88;;
21432;SDS011;18592;49.708;10.900;2022-08-20T08:36:39;8.23;;;7.53;;
21432;SDS011;18592;49.708;10.900;2022-08-20T08:38:44;7.72;;;7.03;;
21432;SDS011;18592;49.708;10.900;2022-08-20T08:40:46;7.53;;;6.93;;
21432;SDS011;18592;49.708;10.900;2022-08-20T08:42:52;8.07;;;7.38;;
21432;SDS011;18592;49.708;10.900;2022-08-20T08:44:59;7.72;;;6.95;;
21432;SDS011;18592;49.708;10.900;2022-08-20T08:47:04;8.20;;;7.38;;
21432;SDS011;18592;49.708;10.900;2022-08-20T08:49:15;7.82;;;7.03;;
21432;SDS011;18592;49.708;10.900;2022-08-20T08:51:27;8.55;;;7.75;;
21432;SDS011;18592;49.708;10.900;2022-08-20T08:53:36;8.23;;;7.43;;
21432;SDS011;18592;49.708;10.900;2022-08-20T08:55:42;7.15;;;6.55;;
21432;SDS011;18592;49.708;10.900;2022-08-20T08:57:45;7.38;;;6.70;;
21432;SDS011;18592;49.708;10.900;2022-08-20T08:59:53;7.78;;;7.07;;
21432;SDS011;18592;49.708;10.900;2022-08-20T09:02:06;8.18;;;6.93;;
21432;SDS011;18592;49.708;10.900;2022-08-20T09:04:09;8.40;;;7.40;;
21432;SDS011;18592;49.708;10.900;2022-08-20T09:06:11;7.25;;;6.65;;
21432;SDS011;18592;49.708;10.900;2022-08-20T09:08:17;8.15;;;6.28;;
21432;SDS011;18592;49.708;10.900;2022-08-20T09:10:24;8.05;;;6.50;;
21432;SDS011;18592;49.708;10.900;2022-08-20T09:12:26;7.70;;;6.90;;
21432;SDS011;18592;49.708;10.900;2022-08-20T09:14:28;7.80;;;7.10;;
21432;SDS011;18592;49.708;10.900;2022-08-20T09:16:30;7.57;;;6.78;;
21432;SDS011;18592;49.708;10.900;2022-08-20T09:18:51;7.43;;;6.57;;
21432;SDS011;18592;49.708;10.900;2022-08-20T09:20:54;7.97;;;7.28;;
21432;SDS011;18592;49.708;10.900;2022-08-20T09:22:55;7.40;;;6.70;;
21432;SDS011;18592;49.708;10.900;2022-08-20T09:24:57;7.55;;;6.78;;
21432;SDS011;18592;49.708;10.900;2022-08-20T09:27:00;7.70;;;7.00;;
21432;SDS011;18592;49.708;10.900;2022-08-20T09:29:02;7.80;;;7.07;;
21432;SDS011;18592;49.708;10.900;2022-08-20T09:31:04;7.80;;;7.10;;
21432;SDS011;18592;49.708;10.900;2022-08-20T09:33:07;7.45;;;6.82;;
21432;SDS011;18592;49.708;10.900;2022-08-20T09:35:09;8.27;;;7.45;;
21432;SDS011;18592;49.708;10.900;2022-08-20T09:37:11;7.68;;;7.03;;
21432;SDS011;18592;49.708;10.900;2022-08-20T09:39:14;7.57;;;6.97;;
21432;SDS011;18592;49.708;10.900;2022-08-20T09:41:16;7.32;;;6.72;;
21432;SDS011;18592;49.708;10.900;2022-08-20T09:43:18;7.22;;;6.63;;
21432;SDS011;18592;49.708;10.900;2022-08-20T09:45:19;7.75;;;7.05;;
21432;SDS011;18592;49.708;10.900;2022-08-20T09:47:22;9.40;;;7.90;;
21432;SDS011;18592;49.708;10.900;2022-08-20T09:49:24;8.73;;;7.68;;
21432;SDS011;18592;49.708;10.900;2022-08-20T09:51:26;7.32;;;6.70;;
21432;SDS011;18592;49.708;10.900;2022-08-20T09:53:28;7.30;;;6.60;;
21432;SDS011;18592;49.708;10.900;2022-08-20T09:57:40;8.43;;;7.70;;
21432;SDS011;18592;49.708;10.900;2022-08-20T09:59:42;7.68;;;6.97;;
21432;SDS011;18592;49.708;10.900;2022-08-20T10:01:45;8.35;;;7.65;;
21432;SDS011;18592;49.708;10.900;2022-08-20T10:03:47;7.65;;;6.97;;
21432;SDS011;18592;49.708;10.900;2022-08-20T10:05:49;7.85;;;7.15;;
21432;SDS011;18592;49.708;10.900;2022-08-20T10:07:51;7.45;;;6.75;;
21432;SDS011;18592;49.708;10.900;2022-08-20T10:09:53;8.30;;;7.47;;
21432;SDS011;18592;49.708;10.900;2022-08-20T10:11:54;7.75;;;7.07;;
21432;SDS011;18592;49.708;10.900;2022-08-20T10:13:56;8.45;;;7.65;;
21432;SDS011;18592;49.708;10.900;2022-08-20T10:15:58;7.97;;;7.28;;
21432;SDS011;18592;49.708;10.900;2022-08-20T10:18:03;7.88;;;7.18;;
21432;SDS011;18592;49.708;10.900;2022-08-20T10:20:08;8.20;;;7.45;;
21432;SDS011;18592;49.708;10.900;2022-08-20T10:22:11;8.20;;;7.50;;
21432;SDS011;18592;49.708;10.900;2022-08-20T10:24:13;7.85;;;7.15;;
21432;SDS011;18592;49.708;10.900;2022-08-20T10:26:15;7.95;;;7.25;;
21432;SDS011;18592;49.708;10.900;2022-08-20T10:28:17;9.13;;;8.32;;
21432;SDS011;18592;49.708;10.900;2022-08-20T10:30:19;8.25;;;7.43;;
21432;SDS011;18592;49.708;10.900;2022-08-20T10:32:20;8.18;;;7.47;;
21432;SDS011;18592;49.708;10.900;2022-08-20T10:34:23;7.50;;;6.90;;
21432;SDS011;18592;49.708;10.900;2022-08-20T10:36:25;7.72;;;7.03;;
21432;SDS011;18592;49.708;10.900;2022-08-20T10:38:26;8.00;;;7.18;;
21432;SDS011;18592;49.708;10.900;2022-08-20T10:40:28;7.93;;;7.22;;
21432;SDS011;18592;49.708;10.900;2022-08-20T10:42:31;8.27;;;7.57;;
21432;SDS011;18592;49.708;10.900;2022-08-20T10:44:33;8.07;;;7.38;;
21432;SDS011;18592;49.708;10.900;2022-08-20T10:46:34;7.53;;;6.82;;
21432;SDS011;18592;49.708;10.900;2022-08-20T10:48:36;7.68;;;7.03;;
21432;SDS011;18592;49.708;10.900;2022-08-20T10:50:38;7.57;;;6.88;;
21432;SDS011;18592;49.708;10.900;2022-08-20T10:52:40;7.88;;;7.10;;
21432;SDS011;18592;49.708;10.900;2022-08-20T10:54:42;7.90;;;7.20;;
21432;SDS011;18592;49.708;10.900;2022-08-20T10:56:44;7.75;;;6.75;;
21432;SDS011;18592;49.708;10.900;2022-08-20T10:58:47;7.68;;;6.97;;
21432;SDS011;18592;49.708;10.900;2022-08-20T11:00:49;8.27;;;7.47;;
21432;SDS011;18592;49.708;10.900;2022-08-20T11:02:50;7.68;;;6.97;;
21432;SDS011;18592;49.708;10.900;2022-08-20T11:04:52;7.45;;;6.75;;
21432;SDS011;18592;49.708;10.900;2022-08-20T11:06:55;8.00;;;7.30;;
21432;SDS011;18592;49.708;10.900;2022-08-20T11:08:56;7.85;;;7.15;;
21432;SDS011;18592;49.708;10.900;2022-08-20T11:10:58;7.88;;;7.20;;
21432;SDS011;18592;49.708;10.900;2022-08-20T11:13:00;7.82;;;7.10;;
21432;SDS011;18592;49.708;10.900;2022-08-20T11:15:05;7.88;;;7.18;;
21432;SDS011;18592;49.708;10.900;2022-08-20T11:17:09;7.85;;;7.20;;
21432;SDS011;18592;49.708;10.900;2022-08-20T11:19:12;8.15;;;7.45;;
21432;SDS011;18592;49.708;10.900;2022-08-20T11:21:14;8.00;;;7.35;;
21432;SDS011;18592;49.708;10.900;2022-08-20T11:23:15;9.05;;;7.78;;
21432;SDS011;18592;49.708;10.900;2022-08-20T11:25:18;8.23;;;7.45;;
21432;SDS011;18592;49.708;10.900;2022-08-20T11:27:22;8.45;;;7.65;;
21432;SDS011;18592;49.708;10.900;2022-08-20T11:29:24;7.85;;;7.25;;
21432;SDS011;18592;49.708;10.900;2022-08-20T11:31:26;7.80;;;7.20;;
21432;SDS011;18592;49.708;10.900;2022-08-20T11:33:27;8.05;;;7.22;;
21432;SDS011;18592;49.708;10.900;2022-08-20T11:35:30;8.15;;;7.45;;
21432;SDS011;18592;49.708;10.900;2022-08-20T11:37:50;8.07;;;7.28;;
21432;SDS011;18592;49.708;10.900;2022-08-20T11:39:52;9.48;;;7.88;;
21432;SDS011;18592;49.708;10.900;2022-08-20T11:41:54;7.00;;;6.43;;
21432;SDS011;18592;49.708;10.900;2022-08-20T11:43:56;7.93;;;7.28;;
21432;SDS011;18592;49.708;10.900;2022-08-20T11:46:17;6.95;;;6.32;;
21432;SDS011;18592;49.708;10.900;2022-08-20T11:48:19;7.97;;;7.20;;
21432;SDS011;18592;49.708;10.900;2022-08-20T11:50:21;7.75;;;7.05;;
21432;SDS011;18592;49.708;10.900;2022-08-20T11:52:23;7.90;;;7.30;;
21432;SDS011;18592;49.708;10.900;2022-08-20T11:54:27;7.03;;;6.40;;
21432;SDS011;18592;49.708;10.900;2022-08-20T11:56:29;8.07;;;7.35;;
21432;SDS011;18592;49.708;10.900;2022-08-20T11:58:31;7.90;;;7.15;;
21432;SDS011;18592;49.708;10.900;2022-08-20T12:00:34;8.70;;;7.40;;
21432;SDS011;18592;49.708;10.900;2022-08-20T12:02:37;8.23;;;7.43;;
21432;SDS011;18592;49.708;10.900;2022-08-20T12:04:39;7.97;;;7.18;;
21432;SDS011;18592;49.708;10.900;2022-08-20T12:06:41;8.27;;;7.47;;
21432;SDS011;18592;49.708;10.900;2022-08-20T12:08:43;8.88;;;8.07;;
21432;SDS011;18592;49.708;10.900;2022-08-20T12:10:44;7.82;;;7.05;;
21432;SDS011;18592;49.708;10.900;2022-08-20T12:12:46;8.35;;;7.63;;
21432;SDS011;18592;49.708;10.900;2022-08-20T12:14:52;8.45;;;7.65;;
21432;SDS011;18592;49.708;10.900;2022-08-20T12:16:57;8.57;;;7.72;;